KDVN/DVN METAR and TAF weather

Enter ICAO airport designator
Station Type Date Time Source
KDVN METAR 2024/04/18 07:52 UTC NOAA

KDVN 180752Z AUTO 00000KT 10SM CLR 07/06 A3002 RMK AO2 SLP164 T00720056


Station Type Date Time Source
KDVN Decoded METAR 2024/04/18 07:52 UTC NOAA

DAVENPORT MUNICIPAL AIRPORT, IA, United States (KDVN) 41-37N 90-35W 228M
Apr 18, 2024 - 03:52 AM EDT / 2024.04.18 0752 UTC
Wind: Calm:0
Visibility: 10 mile(s):0
Sky conditions: clear
Temperature: 45.0 F (7.2 C)
Dew Point: 42.1 F (5.6 C)
Relative Humidity: 89%
Pressure (altimeter): 30.02 in. Hg (1016 hPa)
ob: KDVN 180752Z AUTO 00000KT 10SM CLR 07/06 A3002 RMK AO2 SLP164 T00720056
cycle: 8

Station Type Date Time Source
KDVN TAF UTC NOAA

Error!

Example: see airport list